Capt. George Brumley — WDI3717 — position and weather

sailwx.info

Track history (hours):
 
Tides and Currents Weather Stations Pressure Air Temp Water Temp Dewpoint Dewpoint Depression Visibility Wind Speed Wind Dir Waves Ship Positions

Capt. George Brumley

Owner: Genesis Marine, LLC, Houston, TX. More information available from US FCC via Universal Licensing System and Coast Guard Vessel Documentation Center.

Last reported at 2018-Jun-18 22:08 UTC. Time now 2018-Jun-20 09:24 UTC.
Position N 29°57' W 090°23'.

Length 25 m; draft 3 m.

Type: Other ship. MMSI: 367691190.

Date/timePositionNaut miles runAvg speedWind from/ knotsBaromVisibWave heightAir tempDewpointWater temp
2018-Jun-18 22:08N 29°57' W 090°23'0 0.0
2018-Jun-18 21:58N 29°57' W 090°23'0 0.0
2018-Jun-18 21:30N 29°57' W 090°23'0 0.0
2018-Jun-18 14:20N 29°57' W 090°23'  
2018-Jun-14 03:29N 29°58' W 090°14'  
2018-Jun-11 10:22N 30°23' W 086°59'2 6.0
2018-Jun-11 10:00N 30°23' W 086°57'3 5.9
2018-Jun-11 09:31N 30°24' W 086°54'3 5.7
2018-Jun-11 09:00N 30°24' W 086°50'3 5.5
2018-Jun-11 08:30N 30°24' W 086°47'3 5.1
2018-Jun-11 08:00N 30°24' W 086°44'2 4.3
2018-Jun-11 07:30N 30°24' W 086°42'2 4.0
2018-Jun-11 07:00N 30°24' W 086°39'6 4.9
2018-Jun-11 05:53N 30°24' W 086°33'3 6.3
2018-Jun-11 05:26N 30°26' W 086°30'3 6.2
2018-Jun-11 05:00N 30°26' W 086°27'3 6.0
2018-Jun-11 04:30N 30°26' W 086°23'3 0.1
2018-Jun-09 07:38N 30°26' W 086°19'1 4.8
2018-Jun-09 07:30N 30°26' W 086°20'2 4.7
2018-Jun-09 07:00N 30°26' W 086°23'2 4.8
2018-Jun-09 06:30N 30°26' W 086°26'2 4.8
2018-Jun-09 06:00N 30°26' W 086°28'2 4.7
2018-Jun-09 05:30N 30°25' W 086°31'7 4.3
2018-Jun-09 03:47N 30°24' W 086°39'2 3.9
2018-Jun-09 03:22N 30°24' W 086°41'2 4.2
2018-Jun-09 02:52N 30°24' W 086°44'1 4.2
2018-Jun-09 02:30N 30°24' W 086°45'2 4.5
2018-Jun-09 02:00N 30°24' W 086°48'2 4.6
2018-Jun-09 01:29N 30°24' W 086°51'2 4.5
2018-Jun-09 01:01N 30°24' W 086°53'2 4.8
2018-Jun-09 00:31N 30°23' W 086°56'  
Track history (hours):
 
Tides and Currents Weather Stations Pressure Air Temp Water Temp Dewpoint Dewpoint Depression Visibility Wind Speed Wind Dir Waves Ship Positions

Capt. George Brumley

Owner: Genesis Marine, LLC, Houston, TX. More information available from US FCC via Universal Licensing System and Coast Guard Vessel Documentation Center.

Last reported at 2018-Jun-18 22:08 UTC. Time now 2018-Jun-20 09:24 UTC.
Position N 29°57' W 090°23'.

Length 25 m; draft 3 m.

Type: Other ship. MMSI: 367691190.

Date/timePositionNaut miles runAvg speedWind from/ knotsBaromVisibWave heightAir tempDewpointWater temp
2018-Jun-18 22:08N 29°57' W 090°23'0 0.0
2018-Jun-18 21:58N 29°57' W 090°23'0 0.0
2018-Jun-18 21:30N 29°57' W 090°23'0 0.0
2018-Jun-18 14:20N 29°57' W 090°23'  
2018-Jun-14 03:29N 29°58' W 090°14'  
2018-Jun-11 10:22N 30°23' W 086°59'2 6.0
2018-Jun-11 10:00N 30°23' W 086°57'3 5.9
2018-Jun-11 09:31N 30°24' W 086°54'3 5.7
2018-Jun-11 09:00N 30°24' W 086°50'3 5.5
2018-Jun-11 08:30N 30°24' W 086°47'3 5.1
2018-Jun-11 08:00N 30°24' W 086°44'2 4.3
2018-Jun-11 07:30N 30°24' W 086°42'2 4.0
2018-Jun-11 07:00N 30°24' W 086°39'6 4.9
2018-Jun-11 05:53N 30°24' W 086°33'3 6.3
2018-Jun-11 05:26N 30°26' W 086°30'3 6.2
2018-Jun-11 05:00N 30°26' W 086°27'3 6.0
2018-Jun-11 04:30N 30°26' W 086°23'3 0.1
2018-Jun-09 07:38N 30°26' W 086°19'1 4.8
2018-Jun-09 07:30N 30°26' W 086°20'2 4.7
2018-Jun-09 07:00N 30°26' W 086°23'2 4.8
2018-Jun-09 06:30N 30°26' W 086°26'2 4.8
2018-Jun-09 06:00N 30°26' W 086°28'2 4.7
2018-Jun-09 05:30N 30°25' W 086°31'7 4.3
2018-Jun-09 03:47N 30°24' W 086°39'2 3.9
2018-Jun-09 03:22N 30°24' W 086°41'2 4.2
2018-Jun-09 02:52N 30°24' W 086°44'1 4.2
2018-Jun-09 02:30N 30°24' W 086°45'2 4.5
2018-Jun-09 02:00N 30°24' W 086°48'2 4.6
2018-Jun-09 01:29N 30°24' W 086°51'2 4.5
2018-Jun-09 01:01N 30°24' W 086°53'2 4.8
2018-Jun-09 00:31N 30°23' W 086°56'  

Dump ship's entire track history